createdAt,value
2023-12-24T00:00:30.920Z,97692.36
2023-12-24T00:03:22.730Z,97707.58
2023-12-24T00:05:58.243Z,97705.16
2023-12-24T00:08:30.822Z,97702.92
2023-12-24T00:11:02.500Z,97697.29
2023-12-24T00:13:34.854Z,97698.29
2023-12-24T00:16:07.155Z,97687.52
2023-12-24T00:18:39.078Z,97687.34
2023-12-24T00:21:13.744Z,97693.35
2023-12-24T00:23:46.652Z,97688.54
2023-12-24T00:26:18.500Z,97688.73
2023-12-24T00:28:52.218Z,97699.52
2023-12-24T00:31:24.055Z,97677.44
2023-12-24T00:33:55.769Z,97684.79
2023-12-24T00:36:27.427Z,97693.34
2023-12-24T00:38:59.061Z,97694.88
2023-12-24T00:41:31.587Z,97684.61
2023-12-24T00:44:03.520Z,97679.80
2023-12-24T00:46:35.310Z,97681.00
2023-12-24T00:49:06.944Z,97676.74
2023-12-24T00:51:42.300Z,97689.40
2023-12-24T00:54:14.100Z,97683.58
2023-12-24T00:56:45.643Z,97682.72
2023-12-24T00:59:17.232Z,97690.94
2023-12-24T01:01:48.964Z,97683.24
2023-12-24T01:04:20.609Z,97684.94
2023-12-24T01:06:52.264Z,97683.24
2023-12-24T01:09:23.866Z,97688.38
2023-12-24T01:11:55.850Z,97693.33
2023-12-24T01:14:27.499Z,97698.43
2023-12-24T01:16:59.239Z,97693.45
2023-12-24T01:19:32.163Z,97693.97
2023-12-24T01:22:03.918Z,97698.06
2023-12-24T01:24:35.757Z,97693.77
2023-12-24T01:27:08.240Z,97691.73
2023-12-24T01:29:39.876Z,97704.05
2023-12-24T01:32:11.845Z,97704.93
2023-12-24T01:34:43.544Z,97709.73
2023-12-24T01:37:15.180Z,97707.00
2023-12-24T01:39:46.767Z,97701.54
2023-12-24T01:42:18.442Z,97696.41
2023-12-24T01:44:50.016Z,97700.36
2023-12-24T01:47:21.836Z,97704.48
2023-12-24T01:49:54.249Z,97706.53
2023-12-24T01:52:27.104Z,97704.65
2023-12-24T01:54:59.304Z,97699.69
2023-12-24T01:57:32.028Z,97697.47
2023-12-24T02:00:04.015Z,97701.41
2023-12-24T02:02:35.984Z,97697.83
2023-12-24T02:05:08.542Z,97706.89
2023-12-24T02:07:41.553Z,97705.19
2023-12-24T02:10:13.562Z,97704.19
2023-12-24T02:12:45.825Z,97703.31
2023-12-24T02:15:17.795Z,97693.58
2023-12-24T02:17:50.133Z,97693.77
2023-12-24T02:20:27.200Z,97691.01
2023-12-24T02:22:57.372Z,97688.61
2023-12-24T02:25:31.040Z,97685.70
2023-12-24T02:28:08.753Z,97678.52
2023-12-24T02:30:47.052Z,97675.96
2023-12-24T02:33:20.716Z,97680.62
2023-12-24T02:35:53.494Z,97679.42
2023-12-24T02:38:25.994Z,97681.66
2023-12-24T02:40:57.560Z,97685.30
2023-12-24T02:43:29.735Z,97680.88
2023-12-24T02:46:01.446Z,97686.23
2023-12-24T02:48:33.161Z,97685.02
2023-12-24T02:51:05.260Z,97694.12
2023-12-24T02:53:37.115Z,97691.92
2023-12-24T02:56:09.025Z,97689.38
2023-12-24T02:58:40.621Z,97682.38
2023-12-24T03:01:12.302Z,97691.98
2023-12-24T03:03:43.967Z,97686.52
2023-12-24T03:06:16.044Z,97672.33
2023-12-24T03:08:47.759Z,97661.04
2023-12-24T03:11:19.457Z,97659.67
2023-12-24T03:13:51.076Z,97653.84
2023-12-24T03:16:22.644Z,97655.05
2023-12-24T03:18:54.610Z,97639.27
2023-12-24T03:21:26.287Z,97627.97
2023-12-24T03:23:57.960Z,97638.39
2023-12-24T03:26:30.356Z,97644.58
2023-12-24T03:29:02.594Z,97637.20
2023-12-24T03:31:34.295Z,97637.05
2023-12-24T03:34:05.982Z,97636.04
2023-12-24T03:36:37.694Z,97633.30
2023-12-24T03:39:10.433Z,97627.82
2023-12-24T03:41:42.227Z,97612.92
2023-12-24T03:44:13.973Z,97601.27
2023-12-24T03:46:45.606Z,97592.38
2023-12-24T03:49:17.423Z,97589.29
2023-12-24T03:51:49.665Z,97585.17
2023-12-24T03:54:23.126Z,97595.62
2023-12-24T03:56:55.793Z,97601.11
2023-12-24T03:59:30.092Z,97612.92
2023-12-24T04:02:03.378Z,97623.38
2023-12-24T04:04:35.149Z,97621.50
2023-12-24T04:07:06.989Z,97616.70
2023-12-24T04:09:39.879Z,97614.84
2023-12-24T04:12:11.849Z,97611.59
2023-12-24T04:14:43.679Z,97604.58
2023-12-24T04:17:15.330Z,97602.17
2023-12-24T04:19:47.073Z,97595.16
2023-12-24T04:22:18.730Z,97588.80
2023-12-24T04:24:50.373Z,97589.52
2023-12-24T04:27:21.951Z,97602.36
2023-12-24T04:29:53.588Z,97605.98
2023-12-24T04:32:25.275Z,97613.86
2023-12-24T04:34:56.975Z,97614.73
2023-12-24T04:37:28.594Z,97616.12
2023-12-24T04:40:00.204Z,97614.28
2023-12-24T04:42:32.042Z,97613.44
2023-12-24T04:45:04.083Z,97616.04
2023-12-24T04:47:35.753Z,97616.39
2023-12-24T04:50:09.000Z,97615.54
2023-12-24T04:52:40.707Z,97612.11
2023-12-24T04:55:12.694Z,97621.54
2023-12-24T04:57:44.282Z,97625.11
2023-12-24T05:00:17.631Z,97623.05
2023-12-24T05:02:50.347Z,97619.27
2023-12-24T05:05:22.898Z,97616.85
2023-12-24T05:07:54.592Z,97615.59
2023-12-24T05:10:26.183Z,97627.34
2023-12-24T05:12:57.769Z,97636.17
2023-12-24T05:15:29.765Z,97638.02
2023-12-24T05:18:01.486Z,97635.18
2023-12-24T05:20:33.113Z,97632.22
2023-12-24T05:23:04.836Z,97628.04
2023-12-24T05:25:36.533Z,97629.01
2023-12-24T05:28:08.572Z,97631.20
2023-12-24T05:30:40.195Z,97630.13
2023-12-24T05:33:12.173Z,97623.75
2023-12-24T05:35:43.999Z,97623.71
2023-12-24T05:38:15.745Z,97624.70
2023-12-24T05:40:47.709Z,97622.94
2023-12-24T05:43:19.241Z,97625.13
2023-12-24T05:45:51.219Z,97622.38
2023-12-24T05:48:22.890Z,97614.48
2023-12-24T05:50:54.609Z,97610.20
2023-12-24T05:53:26.290Z,97600.44
2023-12-24T05:55:57.950Z,97602.61
2023-12-24T05:58:29.564Z,97601.24
2023-12-24T06:01:01.273Z,97594.39
2023-12-24T06:03:32.851Z,97581.72
2023-12-24T06:06:04.768Z,97586.00
2023-12-24T06:08:36.546Z,97591.65
2023-12-24T06:11:08.343Z,97587.49
2023-12-24T06:13:39.891Z,97591.09
2023-12-24T06:16:13.222Z,97590.58
2023-12-24T06:18:45.780Z,97589.21
2023-12-24T06:21:18.776Z,97593.16
2023-12-24T06:23:51.705Z,97600.50
2023-12-24T06:26:23.391Z,97595.36
2023-12-24T06:28:55.023Z,97593.31
2023-12-24T06:31:26.624Z,97600.83
2023-12-24T06:33:58.238Z,97601.15
2023-12-24T06:36:29.976Z,97593.47
2023-12-24T06:39:01.535Z,97588.52
2023-12-24T06:41:33.252Z,97590.95
2023-12-24T06:44:04.884Z,97594.89
2023-12-24T06:46:36.478Z,97587.55
2023-12-24T06:49:08.122Z,97589.78
2023-12-24T06:51:39.749Z,97591.71
2023-12-24T06:54:11.391Z,97589.14
2023-12-24T06:56:44.448Z,97592.05
2023-12-24T06:59:16.084Z,97586.76
2023-12-24T07:01:47.686Z,97589.66
2023-12-24T07:04:19.224Z,97587.27
2023-12-24T07:06:51.029Z,97581.96
2023-12-24T07:09:22.618Z,97576.83
2023-12-24T07:11:54.186Z,97575.29
2023-12-24T07:14:25.874Z,97579.23
2023-12-24T07:16:57.596Z,97581.27
2023-12-24T07:19:29.473Z,97568.95
2023-12-24T07:22:01.148Z,97577.18
2023-12-24T07:24:32.792Z,97571.21
2023-12-24T07:27:04.483Z,97571.93
2023-12-24T07:29:36.139Z,97569.87
2023-12-24T07:32:09.087Z,97571.44
2023-12-24T07:34:40.880Z,97574.02
2023-12-24T07:37:15.011Z,97572.33
2023-12-24T07:39:46.734Z,97572.70
2023-12-24T07:42:18.415Z,97564.51
2023-12-24T07:44:50.075Z,97565.20
2023-12-24T07:47:21.678Z,97562.65
2023-12-24T07:49:53.313Z,97554.79
2023-12-24T07:52:25.016Z,97556.70
2023-12-24T07:54:56.652Z,97561.70
2023-12-24T07:57:28.310Z,97560.50
2023-12-24T07:59:59.915Z,97564.11
2023-12-24T08:02:31.746Z,97564.81
2023-12-24T08:05:03.493Z,97564.69
2023-12-24T08:07:35.192Z,97568.83
2023-12-24T08:10:08.628Z,97571.60
2023-12-24T08:12:40.296Z,97573.33
2023-12-24T08:15:12.400Z,97569.06
2023-12-24T08:17:44.303Z,97566.19
2023-12-24T08:20:16.862Z,97567.41
2023-12-24T08:22:48.489Z,97573.09
2023-12-24T08:25:20.248Z,97571.59
2023-12-24T08:27:52.702Z,97570.55
2023-12-24T08:30:24.730Z,97567.14
2023-12-24T08:32:56.891Z,97570.08
2023-12-24T08:35:28.913Z,97566.84
2023-12-24T08:38:00.575Z,97567.54
2023-12-24T08:40:32.201Z,97566.85
2023-12-24T08:43:03.850Z,97561.55
2023-12-24T08:45:35.455Z,97569.09
2023-12-24T08:48:09.285Z,97566.86
2023-12-24T08:50:40.994Z,97578.01
2023-12-24T08:53:12.800Z,97575.61
2023-12-24T08:55:44.365Z,97572.91
2023-12-24T08:58:16.332Z,97570.71
2023-12-24T09:00:47.889Z,97572.80
2023-12-24T09:03:21.742Z,97576.45
2023-12-24T09:05:53.619Z,97577.34
2023-12-24T09:08:26.170Z,97569.63
2023-12-24T09:10:57.857Z,97559.88
2023-12-24T09:13:29.456Z,97565.19
2023-12-24T09:16:01.051Z,97570.70
2023-12-24T09:18:32.897Z,97569.16
2023-12-24T09:21:04.719Z,97567.45
2023-12-24T09:23:36.397Z,97564.89
2023-12-24T09:26:08.260Z,97565.73
2023-12-24T09:28:39.964Z,97571.74
2023-12-24T09:31:11.465Z,97570.20
2023-12-24T09:33:43.222Z,97573.67
2023-12-24T09:36:15.095Z,97573.36
2023-12-24T09:38:46.726Z,97578.54
2023-12-24T09:41:21.298Z,97577.17
2023-12-24T09:43:52.933Z,97577.80
2023-12-24T09:46:24.625Z,97577.81
2023-12-24T09:48:56.237Z,97569.40
2023-12-24T09:51:28.690Z,97563.54
2023-12-24T09:54:00.795Z,97561.81
2023-12-24T09:56:32.524Z,97565.73
2023-12-24T09:59:07.551Z,97566.23
2023-12-24T10:01:47.860Z,97563.45
2023-12-24T10:04:19.590Z,97563.92
2023-12-24T10:06:58.750Z,97558.97
2023-12-24T10:09:46.254Z,97556.55
2023-12-24T10:12:17.897Z,97558.45
2023-12-24T10:14:59.236Z,97553.33
2023-12-24T10:17:35.497Z,97548.38
2023-12-24T10:20:10.756Z,97552.86
2023-12-24T10:22:43.261Z,97544.31
2023-12-24T10:25:18.739Z,97545.17
2023-12-24T10:27:50.676Z,97547.08
2023-12-24T10:30:22.891Z,97552.08
2023-12-24T10:33:08.472Z,97548.83
2023-12-24T10:35:40.451Z,97544.75
2023-12-24T10:38:17.649Z,97545.44
2023-12-24T10:40:47.894Z,97543.59
2023-12-24T10:43:19.627Z,97535.02
2023-12-24T10:45:51.513Z,97543.11
2023-12-24T10:48:23.659Z,97548.27
2023-12-24T10:50:56.051Z,97542.28
2023-12-24T10:53:27.997Z,97539.92
2023-12-24T10:56:05.378Z,97533.95
2023-12-24T10:58:46.977Z,97533.82
2023-12-24T11:01:19.421Z,97531.93
2023-12-24T11:03:54.107Z,97521.13
2023-12-24T11:06:49.427Z,97522.17
2023-12-24T11:09:46.315Z,97512.94
2023-12-24T11:12:35.495Z,97503.53
2023-12-24T11:15:11.478Z,97511.78
2023-12-24T11:17:53.015Z,97514.04
2023-12-24T11:20:42.225Z,97510.63
2023-12-24T11:23:15.325Z,97508.27
2023-12-24T11:25:48.246Z,97504.66
2023-12-24T11:28:39.284Z,97492.16
2023-12-24T11:31:11.203Z,97490.48
2023-12-24T11:33:50.767Z,97485.02
2023-12-24T11:36:23.259Z,97484.19
2023-12-24T11:39:01.659Z,97480.41
2023-12-24T11:41:33.512Z,97478.19
2023-12-24T11:44:05.712Z,97470.67
2023-12-24T11:46:39.547Z,97471.55
2023-12-24T11:49:19.855Z,97467.27
2023-12-24T11:51:51.829Z,97457.50
2023-12-24T11:54:24.438Z,97458.04
2023-12-24T11:56:57.700Z,97459.44
2023-12-24T11:59:29.886Z,97454.15
2023-12-24T12:02:07.972Z,97454.51
2023-12-24T12:04:39.734Z,97450.39
2023-12-24T12:07:11.400Z,97451.61
2023-12-24T12:09:43.299Z,97449.70
2023-12-24T12:12:15.096Z,97448.85
2023-12-24T12:14:46.919Z,97454.02
2023-12-24T12:17:18.617Z,97455.91
2023-12-24T12:19:51.012Z,97461.39
2023-12-24T12:22:22.664Z,97456.26
2023-12-24T12:24:54.316Z,97461.92
2023-12-24T12:27:26.398Z,97463.33
2023-12-24T12:29:58.156Z,97457.83
2023-12-24T12:32:30.217Z,97451.67
2023-12-24T12:35:02.020Z,97450.65
2023-12-24T12:37:34.987Z,97440.19
2023-12-24T12:40:07.887Z,97438.65
2023-12-24T12:42:43.459Z,97444.31
2023-12-24T12:45:16.344Z,97433.17
2023-12-24T12:47:48.131Z,97442.78
2023-12-24T12:50:19.943Z,97440.21
2023-12-24T12:52:55.856Z,97435.94
2023-12-24T12:55:27.603Z,97438.17
2023-12-24T12:57:59.350Z,97438.03
2023-12-24T13:00:31.675Z,97432.71
2023-12-24T13:03:09.882Z,97442.35
2023-12-24T13:05:42.095Z,97448.85
2023-12-24T13:08:18.287Z,97436.51
2023-12-24T13:10:50.269Z,97442.52
2023-12-24T13:13:23.657Z,97440.97
2023-12-24T13:16:09.116Z,97436.34
2023-12-24T13:18:41.416Z,97427.24
2023-12-24T13:21:13.109Z,97419.69
2023-12-24T13:23:45.721Z,97414.89
2023-12-24T13:26:17.315Z,97406.30
2023-12-24T13:28:48.911Z,97411.63
2023-12-24T13:31:25.771Z,97408.20
2023-12-24T13:33:57.442Z,97403.23
2023-12-24T13:36:29.048Z,97405.11
2023-12-24T13:39:00.826Z,97400.30
2023-12-24T13:41:35.329Z,97407.34
2023-12-24T13:44:07.805Z,97407.35
2023-12-24T13:46:40.403Z,97405.65
2023-12-24T13:49:11.999Z,97408.56
2023-12-24T13:51:43.702Z,97411.14
2023-12-24T13:54:15.338Z,97406.16
2023-12-24T13:56:47.095Z,97401.70
2023-12-24T13:59:18.770Z,97406.84
2023-12-24T14:01:50.425Z,97396.70
2023-12-24T14:04:22.118Z,97402.54
2023-12-24T14:06:53.709Z,97389.66
2023-12-24T14:09:26.107Z,97399.43
2023-12-24T14:11:57.955Z,97390.66
2023-12-24T14:14:29.513Z,97392.89
2023-12-24T14:17:01.217Z,97389.98
2023-12-24T14:19:32.755Z,97390.98
2023-12-24T14:22:04.541Z,97383.59
2023-12-24T14:24:36.094Z,97379.80
2023-12-24T14:27:08.259Z,97380.48
2023-12-24T14:29:41.192Z,97384.08
2023-12-24T14:32:13.323Z,97387.17
2023-12-24T14:34:44.863Z,97389.92
2023-12-24T14:37:16.478Z,97388.20
2023-12-24T14:39:48.117Z,97393.84
2023-12-24T14:42:19.741Z,97391.80
2023-12-24T14:44:52.246Z,97389.74
2023-12-24T14:47:25.994Z,97385.80
2023-12-24T14:49:58.798Z,97382.54
2023-12-24T14:52:31.127Z,97386.83
2023-12-24T14:55:03.779Z,97389.91
2023-12-24T14:57:36.910Z,97382.88
2023-12-24T15:00:10.985Z,97380.65
2023-12-24T15:02:43.238Z,97386.98
2023-12-24T15:05:15.178Z,97382.17
2023-12-24T15:07:47.367Z,97383.36
2023-12-24T15:10:19.258Z,97382.36
2023-12-24T15:12:51.823Z,97382.69
2023-12-24T15:15:23.987Z,97380.12
2023-12-24T15:17:55.860Z,97364.33
2023-12-24T15:20:27.775Z,97372.05
2023-12-24T15:22:59.586Z,97370.67
2023-12-24T15:25:31.353Z,97363.63
2023-12-24T15:28:03.442Z,97364.63
2023-12-24T15:30:35.854Z,97364.27
2023-12-24T15:33:08.475Z,97373.19
2023-12-24T15:35:42.446Z,97368.22
2023-12-24T15:38:14.553Z,97371.98
2023-12-24T15:40:46.303Z,97369.42
2023-12-24T15:43:18.298Z,97362.89
2023-12-24T15:45:50.146Z,97364.44
2023-12-24T15:48:22.615Z,97357.61
2023-12-24T15:50:54.538Z,97357.80
2023-12-24T15:53:26.557Z,97345.11
2023-12-24T15:55:58.667Z,97345.99
2023-12-24T15:58:31.027Z,97336.91
2023-12-24T16:01:04.746Z,97331.09
2023-12-24T16:03:36.839Z,97329.38
2023-12-24T16:06:09.987Z,97333.36
2023-12-24T16:08:42.219Z,97323.07
2023-12-24T16:11:14.204Z,97321.88
2023-12-24T16:13:46.060Z,97326.17
2023-12-24T16:16:17.788Z,97321.21
2023-12-24T16:18:50.286Z,97330.34
2023-12-24T16:21:22.361Z,97327.77
2023-12-24T16:23:54.291Z,97332.22
2023-12-24T16:26:25.967Z,97338.43
2023-12-24T16:28:57.859Z,97341.17
2023-12-24T16:31:29.834Z,97332.77
2023-12-24T16:34:02.149Z,97333.78
2023-12-24T16:36:34.126Z,97341.00
2023-12-24T16:39:06.894Z,97327.45
2023-12-24T16:41:42.118Z,97326.93
2023-12-24T16:44:16.696Z,97326.77
2023-12-24T16:46:48.600Z,97320.77
2023-12-24T16:49:20.481Z,97317.85
2023-12-24T16:51:53.600Z,97334.00
2023-12-24T16:54:25.988Z,97346.54
2023-12-24T16:56:57.775Z,97347.23
2023-12-24T16:59:29.523Z,97343.98
2023-12-24T17:02:01.464Z,97347.73
2023-12-24T17:04:33.279Z,97360.13
2023-12-24T17:07:05.297Z,97356.19
2023-12-24T17:09:39.069Z,97361.16
2023-12-24T17:12:10.952Z,97364.77
2023-12-24T17:14:44.316Z,97364.95
2023-12-24T17:17:16.402Z,97370.98
2023-12-24T17:19:48.312Z,97363.10
2023-12-24T17:22:20.000Z,97369.64
2023-12-24T17:24:52.051Z,97358.48
2023-12-24T17:27:23.736Z,97356.79
2023-12-24T17:29:55.698Z,97356.45
2023-12-24T17:32:27.754Z,97352.19
2023-12-24T17:35:00.205Z,97352.52
2023-12-24T17:37:32.125Z,97352.20
2023-12-24T17:40:04.093Z,97355.29
2023-12-24T17:42:36.082Z,97357.70
2023-12-24T17:45:09.690Z,97361.64
2023-12-24T17:47:41.732Z,97366.96
2023-12-24T17:50:13.878Z,97355.11
2023-12-24T17:52:45.707Z,97362.17
2023-12-24T17:55:17.813Z,97368.02
2023-12-24T17:57:49.434Z,97368.02
2023-12-24T18:00:21.863Z,97356.34
2023-12-24T18:02:53.927Z,97352.57
2023-12-24T18:05:26.026Z,97350.51
2023-12-24T18:07:57.901Z,97349.65
2023-12-24T18:10:29.888Z,97361.16
2023-12-24T18:13:01.712Z,97361.15
2023-12-24T18:15:33.518Z,97365.11
2023-12-24T18:18:05.739Z,97363.89
2023-12-24T18:20:37.857Z,97369.57
2023-12-24T18:23:11.190Z,97374.73
2023-12-24T18:25:43.016Z,97371.80
2023-12-24T18:28:15.907Z,97371.29
2023-12-24T18:30:47.808Z,97372.14
2023-12-24T18:33:20.380Z,97381.40
2023-12-24T18:35:52.956Z,97384.83
2023-12-24T18:38:24.749Z,97388.23
2023-12-24T18:40:56.597Z,97381.54
2023-12-24T18:43:28.478Z,97378.10
2023-12-24T18:46:00.750Z,97376.02
2023-12-24T18:48:32.745Z,97385.11
2023-12-24T18:51:06.588Z,97387.01
2023-12-24T18:53:38.242Z,97391.13
2023-12-24T18:56:11.007Z,97396.09
2023-12-24T18:58:43.196Z,97401.77
2023-12-24T19:01:15.032Z,97396.26
2023-12-24T19:03:46.877Z,97399.34
2023-12-24T19:06:26.110Z,97398.98
2023-12-24T19:08:59.629Z,97411.52
2023-12-24T19:11:31.723Z,97409.98
2023-12-24T19:14:04.387Z,97406.89
2023-12-24T19:16:36.051Z,97411.70
2023-12-24T19:19:08.090Z,97411.86
2023-12-24T19:21:40.033Z,97422.34
2023-12-24T19:24:11.772Z,97413.91
2023-12-24T19:26:44.131Z,97413.76
2023-12-24T19:29:15.789Z,97406.38
2023-12-24T19:31:47.427Z,97390.41
2023-12-24T19:34:19.272Z,97381.83
2023-12-24T19:36:51.038Z,97392.30
2023-12-24T19:39:22.706Z,97402.27
2023-12-24T19:41:54.503Z,97408.95
2023-12-24T19:44:26.323Z,97405.36
2023-12-24T19:46:58.022Z,97399.89
2023-12-24T19:49:30.086Z,97404.86
2023-12-24T19:52:01.790Z,97406.77
2023-12-24T19:54:33.362Z,97418.80
2023-12-24T19:57:05.434Z,97419.16
2023-12-24T19:59:37.061Z,97409.38
2023-12-24T20:02:08.690Z,97410.59
2023-12-24T20:04:41.558Z,97401.30
2023-12-24T20:07:13.296Z,97402.34
2023-12-24T20:09:44.853Z,97404.74
2023-12-24T20:12:16.777Z,97399.08
2023-12-24T20:14:48.544Z,97398.73
2023-12-24T20:17:20.637Z,97404.23
2023-12-24T20:19:52.263Z,97416.27
2023-12-24T20:22:25.780Z,97415.59
2023-12-24T20:24:58.513Z,97418.84
2023-12-24T20:27:30.211Z,97425.20
2023-12-24T20:30:01.884Z,97424.88
2023-12-24T20:32:33.832Z,97420.40
2023-12-24T20:35:05.924Z,97426.77
2023-12-24T20:37:37.554Z,97417.33
2023-12-24T20:40:11.128Z,97429.35
2023-12-24T20:42:42.867Z,97428.66
2023-12-24T20:45:14.751Z,97422.83
2023-12-24T20:47:46.576Z,97427.28
2023-12-24T20:50:18.600Z,97412.20
2023-12-24T20:52:50.567Z,97419.59
2023-12-24T20:55:22.596Z,97425.77
2023-12-24T20:57:54.473Z,97430.91
2023-12-24T21:00:26.371Z,97433.49
2023-12-24T21:02:58.616Z,97435.55
2023-12-24T21:05:30.796Z,97431.42
2023-12-24T21:08:02.747Z,97436.07
2023-12-24T21:10:34.549Z,97443.61
2023-12-24T21:13:06.697Z,97446.17
2023-12-24T21:15:38.445Z,97446.35
2023-12-24T21:18:10.379Z,97434.33
2023-12-24T21:20:42.271Z,97437.93
2023-12-24T21:23:14.219Z,97437.24
2023-12-24T21:25:46.084Z,97444.10
2023-12-24T21:28:17.779Z,97444.60
2023-12-24T21:30:49.657Z,97446.66
2023-12-24T21:33:21.472Z,97448.20
2023-12-24T21:35:53.655Z,97443.55
2023-12-24T21:38:25.489Z,97447.32
2023-12-24T21:40:57.661Z,97445.59
2023-12-24T21:43:29.369Z,97440.07
2023-12-24T21:46:03.990Z,97446.73
2023-12-24T21:48:36.304Z,97445.88
2023-12-24T21:51:08.303Z,97448.92
2023-12-24T21:53:40.495Z,97454.07
2023-12-24T21:56:12.525Z,97460.91
2023-12-24T21:58:44.543Z,97459.52
2023-12-24T22:01:26.228Z,97450.08
2023-12-24T22:04:01.313Z,97453.34
2023-12-24T22:06:33.182Z,97455.73
2023-12-24T22:09:05.385Z,97457.11
2023-12-24T22:11:37.167Z,97454.55
2023-12-24T22:14:08.952Z,97453.34
2023-12-24T22:16:40.678Z,97472.22
2023-12-24T22:19:12.644Z,97466.20
2023-12-24T22:21:49.423Z,97467.95
2023-12-24T22:24:23.948Z,97476.86
2023-12-24T22:26:56.423Z,97482.71
2023-12-24T22:29:28.256Z,97484.27
2023-12-24T22:31:59.844Z,97483.42
2023-12-24T22:34:31.836Z,97491.86
2023-12-24T22:37:03.657Z,97498.40
2023-12-24T22:39:35.216Z,97496.89
2023-12-24T22:42:07.149Z,97501.57
2023-12-24T22:44:39.756Z,97498.84
2023-12-24T22:47:11.357Z,97498.54
2023-12-24T22:49:43.025Z,97498.73
2023-12-24T22:52:14.675Z,97503.90
2023-12-24T22:54:46.461Z,97504.42
2023-12-24T22:57:18.246Z,97506.29
2023-12-24T22:59:49.930Z,97497.17
2023-12-24T23:02:21.638Z,97500.43
2023-12-24T23:04:53.339Z,97497.01
2023-12-24T23:07:25.014Z,97500.77
2023-12-24T23:09:58.026Z,97497.85
2023-12-24T23:12:29.682Z,97496.15
2023-12-24T23:15:01.334Z,97494.95
2023-12-24T23:17:33.225Z,97500.30
2023-12-24T23:20:05.144Z,97508.55
2023-12-24T23:22:36.809Z,97516.28
2023-12-24T23:25:09.315Z,97512.84
2023-12-24T23:27:40.926Z,97510.26
2023-12-24T23:30:14.012Z,97505.96
2023-12-24T23:32:45.663Z,97503.73
2023-12-24T23:35:17.547Z,97496.84
2023-12-24T23:37:49.228Z,97488.92
2023-12-24T23:40:20.893Z,97502.13
2023-12-24T23:42:52.473Z,97500.74
2023-12-24T23:45:24.064Z,97495.06
2023-12-24T23:47:55.820Z,97507.58
2023-12-24T23:50:27.649Z,97507.02
2023-12-24T23:52:59.283Z,97503.73
2023-12-24T23:55:30.869Z,97503.55
2023-12-24T23:58:02.519Z,97498.58
